www.cux-wetter.de
Wetterdaten: Sonntag, 14.12.2008
Datum Zeit Temp. A. Feuchte A. Luftdruck Regen Wind Richtung Richtung Sonnenschein Solar Taupunkt Windchill Windben
14.12.2008 00:04 2,8 C 94 % 1001,5 hPa 0,0 l/m 17,5 km/h (3 Bft) SO 135 0 min 0 W/m 1,9 C -4,9 C 17,5 km/h (3 Bft)
14.12.2008 00:10 2,8 C 94 % 1001,5 hPa 0,0 l/m 26,7 km/h (4 Bft) SO 145 0 min 0 W/m 1,9 C -8,5 C 26,7 km/h (4 Bft)
14.12.2008 00:15 2,9 C 94 % 1001,5 hPa 0,0 l/m 17,3 km/h (3 Bft) S-SO 160 0 min 0 W/m 2,0 C -4,7 C 17,3 km/h (3 Bft)
14.12.2008 00:19 2,9 C 94 % 1001,5 hPa 0,0 l/m 16,6 km/h (3 Bft) SO 135 0 min 0 W/m 2,0 C -4,3 C 16,6 km/h (3 Bft)
14.12.2008 00:24 2,9 C 94 % 1001,5 hPa 0,0 l/m 21,3 km/h (4 Bft) SO 130 0 min 0 W/m 2,0 C -6,4 C 21,3 km/h (4 Bft)
14.12.2008 00:29 2,9 C 94 % 1000,5 hPa 0,0 l/m 17,3 km/h (3 Bft) SO 125 0 min 0 W/m 2,0 C -4,7 C 17,3 km/h (3 Bft)
14.12.2008 00:34 3,0 C 94 % 1000,5 hPa 0,0 l/m 19,7 km/h (3 Bft) S-SO 160 0 min 0 W/m 2,1 C -5,6 C 19,7 km/h (3 Bft)
14.12.2008 00:39 2,9 C 94 % 1000,5 hPa 0,0 l/m 13,1 km/h (3 Bft) S-SO 150 0 min 0 W/m 2,0 C -2,4 C 13,1 km/h (3 Bft)
14.12.2008 00:44 2,9 C 93 % 1000,5 hPa 0,0 l/m 16,5 km/h (3 Bft) SO 140 0 min 0 W/m 1,9 C -4,3 C 16,5 km/h (3 Bft)
14.12.2008 00:50 3,0 C 93 % 1000,5 hPa 0,0 l/m 18,0 km/h (3 Bft) SO 135 0 min 0 W/m 2,0 C -4,9 C 18,0 km/h (3 Bft)
14.12.2008 00:55 3,0 C 93 % 1001,5 hPa 0,0 l/m 16,5 km/h (3 Bft) SO 145 0 min 0 W/m 2,0 C -4,1 C 16,5 km/h (3 Bft)
14.12.2008 01:00 3,0 C 93 % 1001,5 hPa 0,0 l/m 21,1 km/h (4 Bft) SO 135 0 min 0 W/m 2,0 C -6,2 C 21,1 km/h (4 Bft)
14.12.2008 01:04 3,0 C 93 % 1001,5 hPa 0,0 l/m 10,8 km/h (2 Bft) S-SO 155 0 min 0 W/m 2,0 C -0,7 C 10,8 km/h (2 Bft)
14.12.2008 01:09 3,0 C 93 % 1000,5 hPa 0,0 l/m 12,8 km/h (3 Bft) SO 135 0 min 0 W/m 2,0 C -2,1 C 12,8 km/h (3 Bft)
14.12.2008 01:15 3,1 C 93 % 1000,5 hPa 0,0 l/m 17,0 km/h (3 Bft) SO 140 0 min 0 W/m 2,1 C -4,3 C 17,0 km/h (3 Bft)
14.12.2008 01:20 3,1 C 93 % 1000,5 hPa 0,0 l/m 20,0 km/h (4 Bft) SO 145 0 min 0 W/m 2,1 C -5,6 C 20,0 km/h (4 Bft)
14.12.2008 01:25 3,1 C 93 % 1001,5 hPa 0,0 l/m 18,0 km/h (3 Bft) S-SO 150 0 min 0 W/m 2,1 C -4,7 C 18,0 km/h (3 Bft)
14.12.2008 01:29 3,1 C 93 % 1001,5 hPa 0,0 l/m 15,3 km/h (3 Bft) SO 140 0 min 0 W/m 2,1 C -3,4 C 15,3 km/h (3 Bft)
14.12.2008 01:34 3,1 C 93 % 1000,5 hPa 0,0 l/m 16,1 km/h (3 Bft) SO 140 0 min 0 W/m 2,1 C -3,8 C 16,1 km/h (3 Bft)
14.12.2008 01:39 3,1 C 93 % 1000,5 hPa 0,0 l/m 21,7 km/h (4 Bft) S-SO 150 0 min 0 W/m 2,1 C -6,3 C 21,7 km/h (4 Bft)
14.12.2008 01:44 3,1 C 93 % 1001,5 hPa 0,0 l/m 17,1 km/h (3 Bft) S-SO 155 0 min 0 W/m 2,1 C -4,3 C 17,1 km/h (3 Bft)
14.12.2008 01:49 3,1 C 93 % 1001,5 hPa 0,0 l/m 15,8 km/h (3 Bft) SO 140 0 min 0 W/m 2,1 C -3,7 C 15,8 km/h (3 Bft)
14.12.2008 01:55 3,1 C 93 % 1001,5 hPa 0,0 l/m 21,5 km/h (4 Bft) SO 140 0 min 0 W/m 2,1 C -6,2 C 21,5 km/h (4 Bft)
14.12.2008 02:00 3,1 C 93 % 1001,5 hPa 0,0 l/m 16,1 km/h (3 Bft) SO 145 0 min 0 W/m 2,1 C -3,8 C 16,1 km/h (3 Bft)
14.12.2008 02:04 3,1 C 93 % 1001,5 hPa 0,0 l/m 16,7 km/h (3 Bft) SO 140 0 min 0 W/m 2,1 C -4,1 C 16,7 km/h (3 Bft)
14.12.2008 02:09 3,1 C 93 % 1001,5 hPa 0,0 l/m 14,4 km/h (3 Bft) S-SO 150 0 min 0 W/m 2,1 C -2,9 C 14,4 km/h (3 Bft)
14.12.2008 02:15 3,1 C 93 % 1001,5 hPa 0,0 l/m 21,3 km/h (4 Bft) SO 140 0 min 0 W/m 2,1 C -6,2 C 21,3 km/h (4 Bft)
14.12.2008 02:20 3,1 C 93 % 1001,5 hPa 0,0 l/m 15,7 km/h (3 Bft) S-SO 155 0 min 0 W/m 2,1 C -3,6 C 15,7 km/h (3 Bft)
14.12.2008 02:25 3,1 C 93 % 1001,5 hPa 0,0 l/m 21,0 km/h (4 Bft) S-SO 150 0 min 0 W/m 2,1 C -6,0 C 21,0 km/h (4 Bft)
14.12.2008 02:30 3,1 C 93 % 1001,5 hPa 0,0 l/m 15,3 km/h (3 Bft) SO 145 0 min 0 W/m 2,1 C -3,4 C 15,3 km/h (3 Bft)
14.12.2008 02:34 3,1 C 93 % 1001,5 hPa 0,0 l/m 12,8 km/h (3 Bft) SO 145 0 min 0 W/m 2,1 C -1,9 C 12,8 km/h (3 Bft)
14.12.2008 02:39 3,1 C 93 % 1001,5 hPa 0,0 l/m 15,3 km/h (3 Bft) S-SO 150 0 min 0 W/m 2,1 C -3,4 C 15,3 km/h (3 Bft)
14.12.2008 02:44 3,1 C 93 % 1001,5 hPa 0,0 l/m 12,1 km/h (2 Bft) S-SO 150 0 min 0 W/m 2,1 C -1,5 C 12,1 km/h (2 Bft)
14.12.2008 02:49 3,1 C 93 % 1001,5 hPa 0,0 l/m 12,0 km/h (2 Bft) SO 140 0 min 0 W/m 2,1 C -1,4 C 12,0 km/h (2 Bft)
14.12.2008 02:54 3,1 C 93 % 1001,5 hPa 0,0 l/m 15,7 km/h (3 Bft) S-SO 150 0 min 0 W/m 2,1 C -3,6 C 15,7 km/h (3 Bft)
14.12.2008 03:00 3,1 C 93 % 1001,5 hPa 0,0 l/m 11,8 km/h (2 Bft) S-SO 150 0 min 0 W/m 2,1 C -1,3 C 11,8 km/h (2 Bft)
14.12.2008 03:05 3,1 C 93 % 1001,5 hPa 0,0 l/m 13,3 km/h (3 Bft) S-SO 155 0 min 0 W/m 2,1 C -2,2 C 13,3 km/h (3 Bft)
14.12.2008 03:09 3,1 C 93 % 1001,5 hPa 0,0 l/m 16,3 km/h (3 Bft) S-SO 155 0 min 0 W/m 2,1 C -3,9 C 16,3 km/h (3 Bft)
14.12.2008 03:14 3,2 C 93 % 1001,5 hPa 0,0 l/m 16,3 km/h (3 Bft) S-SO 155 0 min 0 W/m 2,2 C -3,8 C 16,3 km/h (3 Bft)
14.12.2008 03:19 3,2 C 93 % 1001,5 hPa 0,0 l/m 15,9 km/h (3 Bft) S-SO 160 0 min 0 W/m 2,2 C -3,6 C 15,9 km/h (3 Bft)
14.12.2008 03:25 3,2 C 93 % 1001,5 hPa 0,0 l/m 11,7 km/h (2 Bft) S-SO 160 0 min 0 W/m 2,2 C -1,1 C 11,7 km/h (2 Bft)
14.12.2008 03:30 3,2 C 93 % 1001,5 hPa 0,0 l/m 17,0 km/h (3 Bft) S-SO 150 0 min 0 W/m 2,2 C -4,1 C 17,0 km/h (3 Bft)
14.12.2008 03:35 3,2 C 92 % 1001,5 hPa 0,0 l/m 12,1 km/h (2 Bft) S-SO 155 0 min 0 W/m 2,0 C -1,4 C 12,1 km/h (2 Bft)
14.12.2008 03:39 3,2 C 92 % 1001,5 hPa 0,0 l/m 12,1 km/h (2 Bft) S-SO 155 0 min 0 W/m 2,0 C -1,4 C 12,1 km/h (2 Bft)
14.12.2008 03:44 3,2 C 92 % 1001,5 hPa 0,0 l/m 19,8 km/h (3 Bft) S-SO 155 0 min 0 W/m 2,0 C -5,4 C 19,8 km/h (3 Bft)
14.12.2008 03:49 3,2 C 92 % 1001,5 hPa 0,0 l/m 14,2 km/h (3 Bft) S-SO 155 0 min 0 W/m 2,0 C -2,7 C 14,2 km/h (3 Bft)
14.12.2008 03:54 3,2 C 92 % 1001,5 hPa 0,0 l/m 21,4 km/h (4 Bft) S-SO 160 0 min 0 W/m 2,0 C -6,1 C 21,4 km/h (4 Bft)
14.12.2008 03:59 3,2 C 92 % 1001,5 hPa 0,0 l/m 17,2 km/h (3 Bft) S-SO 150 0 min 0 W/m 2,0 C -4,2 C 17,2 km/h (3 Bft)
14.12.2008 04:05 3,2 C 92 % 1001,5 hPa 0,0 l/m 18,5 km/h (3 Bft) S 170 0 min 0 W/m 2,0 C -4,8 C 18,5 km/h (3 Bft)
14.12.2008 04:09 3,2 C 92 % 1001,5 hPa 0,0 l/m 16,6 km/h (3 Bft) S 170 0 min 0 W/m 2,0 C -3,9 C 16,6 km/h (3 Bft)
14.12.2008 04:14 3,1 C 91 % 1001,5 hPa 0,0 l/m 15,7 km/h (3 Bft) S 170 0 min 0 W/m 1,8 C -3,6 C 15,7 km/h (3 Bft)
14.12.2008 04:19 3,1 C 91 % 1001,5 hPa 0,0 l/m 15,0 km/h (3 Bft) SO 145 0 min 0 W/m 1,8 C -3,2 C 15,0 km/h (3 Bft)
14.12.2008 04:24 3,0 C 91 % 1001,5 hPa 0,0 l/m 18,6 km/h (3 Bft) S-SO 150 0 min 0 W/m 1,7 C -5,1 C 18,6 km/h (3 Bft)
14.12.2008 04:30 2,9 C 91 % 1001,5 hPa 0,0 l/m 16,8 km/h (3 Bft) S-SO 160 0 min 0 W/m 1,6 C -4,4 C 16,8 km/h (3 Bft)
14.12.2008 04:35 2,8 C 91 % 1001,5 hPa 0,0 l/m 16,8 km/h (3 Bft) S-SO 160 0 min 0 W/m 1,5 C -4,5 C 16,8 km/h (3 Bft)
14.12.2008 04:40 2,9 C 91 % 1001,5 hPa 0,0 l/m 17,5 km/h (3 Bft) S-SO 160 0 min 0 W/m 1,6 C -4,8 C 17,5 km/h (3 Bft)
14.12.2008 04:44 2,8 C 91 % 1001,5 hPa 0,0 l/m 15,8 km/h (3 Bft) SO 140 0 min 0 W/m 1,5 C -4,0 C 15,8 km/h (3 Bft)
14.12.2008 04:49 2,7 C 91 % 1001,5 hPa 0,0 l/m 12,3 km/h (2 Bft) S-SO 160 0 min 0 W/m 1,4 C -2,1 C 12,3 km/h (2 Bft)
14.12.2008 04:54 2,6 C 91 % 1001,5 hPa 0,0 l/m 15,8 km/h (3 Bft) S-SO 150 0 min 0 W/m 1,3 C -4,3 C 15,8 km/h (3 Bft)
14.12.2008 04:59 2,5 C 91 % 1001,5 hPa 0,0 l/m 10,0 km/h (2 Bft) S-SO 155 0 min 0 W/m 1,2 C -0,7 C 10,0 km/h (2 Bft)
14.12.2008 05:04 2,4 C 91 % 1001,5 hPa 0,0 l/m 13,0 km/h (3 Bft) S-SO 165 0 min 0 W/m 1,1 C -2,9 C 13,0 km/h (3 Bft)
14.12.2008 05:09 2,3 C 92 % 1001,5 hPa 0,0 l/m 15,9 km/h (3 Bft) S-SO 165 0 min 0 W/m 1,1 C -4,7 C 15,9 km/h (3 Bft)
14.12.2008 05:14 2,3 C 92 % 1001,5 hPa 0,0 l/m 12,5 km/h (2 Bft) S 170 0 min 0 W/m 1,1 C -2,7 C 12,5 km/h (2 Bft)
14.12.2008 05:19 2,3 C 92 % 1001,5 hPa 0,0 l/m 18,0 km/h (3 Bft) S-SO 160 0 min 0 W/m 1,1 C -5,7 C 18,0 km/h (3 Bft)
14.12.2008 05:24 2,2 C 92 % 1001,5 hPa 0,0 l/m 11,1 km/h (2 Bft) S-SO 150 0 min 0 W/m 1,0 C -1,8 C 11,1 km/h (2 Bft)
14.12.2008 05:29 2,1 C 92 % 1001,5 hPa 0,0 l/m 9,8 km/h (2 Bft) O-SO 120 0 min 0 W/m 0,9 C -1,0 C 9,8 km/h (2 Bft)
14.12.2008 05:35 2,1 C 92 % 1001,5 hPa 0,0 l/m 10,6 km/h (2 Bft) SO 135 0 min 0 W/m 0,9 C -1,6 C 10,6 km/h (2 Bft)
14.12.2008 05:40 2,1 C 92 % 1001,5 hPa 0,0 l/m 22,1 km/h (4 Bft) S-SO 155 0 min 0 W/m 0,9 C -7,8 C 22,1 km/h (4 Bft)
14.12.2008 05:45 2,1 C 92 % 1002,5 hPa 0,0 l/m 11,6 km/h (2 Bft) SO 140 0 min 0 W/m 0,9 C -2,3 C 11,6 km/h (2 Bft)
14.12.2008 05:49 2,1 C 92 % 1002,5 hPa 0,0 l/m 15,7 km/h (3 Bft) SO 140 0 min 0 W/m 0,9 C -4,8 C 15,7 km/h (3 Bft)
14.12.2008 05:54 2,0 C 92 % 1002,5 hPa 0,0 l/m 11,6 km/h (2 Bft) SO 140 0 min 0 W/m 0,8 C -2,4 C 11,6 km/h (2 Bft)
14.12.2008 05:59 2,0 C 92 % 1002,5 hPa 0,0 l/m 11,3 km/h (2 Bft) SO 130 0 min 0 W/m 0,8 C -2,2 C 11,3 km/h (2 Bft)
14.12.2008 06:04 1,9 C 92 % 1002,5 hPa 0,0 l/m 12,5 km/h (2 Bft) SO 140 0 min 0 W/m 0,7 C -3,1 C 12,5 km/h (2 Bft)
14.12.2008 06:10 1,9 C 93 % 1002,5 hPa 0,0 l/m 17,0 km/h (3 Bft) S-SO 155 0 min 0 W/m 0,9 C -5,8 C 17,0 km/h (3 Bft)
14.12.2008 06:14 2,0 C 93 % 1002,5 hPa 0,0 l/m 22,2 km/h (4 Bft) S-SO 150 0 min 0 W/m 1,0 C -8,0 C 22,2 km/h (4 Bft)
14.12.2008 06:19 2,0 C 93 % 1002,5 hPa 0,0 l/m 16,9 km/h (3 Bft) SO 140 0 min 0 W/m 1,0 C -5,6 C 16,9 km/h (3 Bft)
14.12.2008 06:24 2,0 C 93 % 1002,5 hPa 0,0 l/m 21,5 km/h (4 Bft) SO 125 0 min 0 W/m 1,0 C -7,7 C 21,5 km/h (4 Bft)
14.12.2008 06:29 2,1 C 93 % 1002,5 hPa 0,0 l/m 14,9 km/h (3 Bft) S-SO 155 0 min 0 W/m 1,1 C -4,4 C 14,9 km/h (3 Bft)
14.12.2008 06:34 2,1 C 93 % 1002,5 hPa 0,0 l/m 15,1 km/h (3 Bft) SO 145 0 min 0 W/m 1,1 C -4,5 C 15,1 km/h (3 Bft)
14.12.2008 06:40 2,1 C 93 % 1002,5 hPa 0,0 l/m 18,6 km/h (3 Bft) S-SO 150 0 min 0 W/m 1,1 C -6,3 C 18,6 km/h (3 Bft)
14.12.2008 06:45 2,1 C 93 % 1002,5 hPa 0,0 l/m 14,3 km/h (3 Bft) SO 140 0 min 0 W/m 1,1 C -4,0 C 14,3 km/h (3 Bft)
14.12.2008 06:50 2,1 C 93 % 1002,5 hPa 0,0 l/m 12,2 km/h (2 Bft) SO 140 0 min 0 W/m 1,1 C -2,7 C 12,2 km/h (2 Bft)
14.12.2008 06:54 2,2 C 93 % 1002,5 hPa 0,0 l/m 14,9 km/h (3 Bft) S-SO 160 0 min 0 W/m 1,2 C -4,3 C 14,9 km/h (3 Bft)
14.12.2008 06:59 2,2 C 93 % 1002,5 hPa 0,0 l/m 15,5 km/h (3 Bft) SO 125 0 min 0 W/m 1,2 C -4,6 C 15,5 km/h (3 Bft)
14.12.2008 07:04 2,1 C 92 % 1002,5 hPa 0,0 l/m 8,9 km/h (2 Bft) O-SO 120 0 min 0 W/m 0,9 C -0,2 C 8,9 km/h (2 Bft)
14.12.2008 07:10 2,1 C 93 % 1002,5 hPa 0,0 l/m 20,0 km/h (4 Bft) O-SO 120 0 min 0 W/m 1,1 C -6,9 C 20,0 km/h (4 Bft)
14.12.2008 07:14 2,1 C 93 % 1002,5 hPa 0,0 l/m 9,8 km/h (2 Bft) SO 135 0 min 0 W/m 1,1 C -1,0 C 9,8 km/h (2 Bft)
14.12.2008 07:19 2,1 C 93 % 1002,5 hPa 0,0 l/m 15,3 km/h (3 Bft) SO 135 0 min 0 W/m 1,1 C -4,6 C 15,3 km/h (3 Bft)
14.12.2008 07:24 2,1 C 93 % 1002,5 hPa 0,0 l/m 11,8 km/h (2 Bft) O-SO 115 0 min 0 W/m 1,1 C -2,4 C 11,8 km/h (2 Bft)
14.12.2008 07:29 2,1 C 93 % 1002,5 hPa 0,0 l/m 14,0 km/h (3 Bft) SO 125 0 min 0 W/m 1,1 C -3,9 C 14,0 km/h (3 Bft)
14.12.2008 07:34 2,1 C 93 % 1002,5 hPa 0,0 l/m 13,3 km/h (3 Bft) O-SO 115 0 min 0 W/m 1,1 C -3,4 C 13,3 km/h (3 Bft)
14.12.2008 07:40 2,1 C 93 % 1002,5 hPa 0,0 l/m 21,1 km/h (4 Bft) O-SO 105 0 min 0 W/m 1,1 C -7,4 C 21,1 km/h (4 Bft)
14.12.2008 07:45 2,1 C 93 % 1002,5 hPa 0,0 l/m 14,5 km/h (3 Bft) O-SO 115 0 min 0 W/m 1,1 C -4,2 C 14,5 km/h (3 Bft)
14.12.2008 07:50 2,2 C 93 % 1003,5 hPa 0,0 l/m 14,5 km/h (3 Bft) SO 125 0 min 0 W/m 1,2 C -4,0 C 14,5 km/h (3 Bft)
14.12.2008 07:55 2,4 C 94 % 1003,5 hPa 0,0 l/m 22,6 km/h (4 Bft) SO 130 0 min 0 W/m 1,5 C -7,6 C 22,6 km/h (4 Bft)
14.12.2008 07:59 2,4 C 94 % 1003,5 hPa 0,0 l/m 19,4 km/h (3 Bft) SO 130 0 min 0 W/m 1,5 C -6,3 C 19,4 km/h (3 Bft)
14.12.2008 08:05 2,5 C 94 % 1003,5 hPa 0,0 l/m 16,3 km/h (3 Bft) SO 125 0 min 0 W/m 1,6 C -4,7 C 16,3 km/h (3 Bft)
14.12.2008 08:10 2,6 C 94 % 1003,5 hPa 0,0 l/m 21,3 km/h (4 Bft) O-SO 120 0 min 0 W/m 1,7 C -6,8 C 21,3 km/h (4 Bft)
14.12.2008 08:15 2,7 C 94 % 1003,5 hPa 0,0 l/m 19,5 km/h (3 Bft) O-SO 115 0 min 0 W/m 1,8 C -5,9 C 19,5 km/h (3 Bft)
14.12.2008 08:19 2,7 C 94 % 1003,5 hPa 0,0 l/m 16,6 km/h (3 Bft) SO 125 0 min 0 W/m 1,8 C -4,6 C 16,6 km/h (3 Bft)
14.12.2008 08:24 3,4 C 95 % 1003,5 hPa 0,0 l/m 21,3 km/h (4 Bft) SO 125 0 min 0 W/m 2,7 C -5,8 C 21,3 km/h (4 Bft)
14.12.2008 08:29 4,1 C 95 % 1003,5 hPa 0,0 l/m 21,6 km/h (4 Bft) SO 140 0 min 0 W/m 3,4 C -5,0 C 21,6 km/h (4 Bft)
14.12.2008 08:34 4,4 C 94 % 1003,5 hPa 0,0 l/m 21,6 km/h (4 Bft) SO 140 0 min 0 W/m 3,5 C -4,6 C 21,6 km/h (4 Bft)
14.12.2008 08:40 4,8 C 93 % 1003,5 hPa 0,0 l/m 15,9 km/h (3 Bft) SO 125 0 min 0 W/m 3,8 C -1,6 C 15,9 km/h (3 Bft)
14.12.2008 08:45 4,7 C 91 % 1003,5 hPa 0,0 l/m 17,2 km/h (3 Bft) SO 135 0 min 0 W/m 3,4 C -2,4 C 17,2 km/h (3 Bft)
14.12.2008 08:50 4,8 C 91 % 1003,5 hPa 0,0 l/m 18,8 km/h (3 Bft) SO 135 0 min 0 W/m 3,5 C -2,9 C 18,8 km/h (3 Bft)
14.12.2008 08:54 4,9 C 90 % 1003,5 hPa 0,0 l/m 19,0 km/h (3 Bft) SO 125 0 min 0 W/m 3,4 C -2,9 C 19,0 km/h (3 Bft)
14.12.2008 08:59 5,5 C 90 % 1003,5 hPa 0,0 l/m 12,9 km/h (3 Bft) SO 130 0 min 0 W/m 4,0 C 0,8 C 12,9 km/h (3 Bft)
14.12.2008 09:04 5,8 C 90 % 1003,5 hPa 0,3 l/m 12,6 km/h (3 Bft) SO 130 0 min 0 W/m 4,3 C 1,3 C 12,6 km/h (3 Bft)
14.12.2008 09:10 6,0 C 87 % 1003,5 hPa 0,0 l/m 17,0 km/h (3 Bft) SO 125 0 min 0 W/m 4,0 C -0,6 C 17,0 km/h (3 Bft)
14.12.2008 09:14 5,8 C 86 % 1003,5 hPa 0,0 l/m 16,1 km/h (3 Bft) SO 125 0 min 0 W/m 3,6 C -0,5 C 16,1 km/h (3 Bft)
14.12.2008 09:19 5,7 C 86 % 1003,5 hPa 0,0 l/m 18,3 km/h (3 Bft) SO 130 0 min 0 W/m 3,5 C -1,6 C 18,3 km/h (3 Bft)
14.12.2008 09:24 5,6 C 85 % 1003,5 hPa 0,0 l/m 16,3 km/h (3 Bft) O-SO 105 0 min 0 W/m 3,3 C -0,8 C 16,3 km/h (3 Bft)
14.12.2008 09:29 5,7 C 86 % 1003,5 hPa 0,0 l/m 14,0 km/h (3 Bft) SO 125 0 min 0 W/m 3,5 C 0,4 C 14,0 km/h (3 Bft)
14.12.2008 09:34 5,2 C 84 % 1004,5 hPa 0,0 l/m 18,3 km/h (3 Bft) SO 140 0 min 0 W/m 2,7 C -2,2 C 18,3 km/h (3 Bft)
14.12.2008 09:40 4,7 C 85 % 1004,5 hPa 0,0 l/m 20,7 km/h (4 Bft) SO 135 0 min 0 W/m 2,4 C -3,8 C 20,7 km/h (4 Bft)
14.12.2008 09:45 4,1 C 86 % 1004,5 hPa 0,0 l/m 19,5 km/h (3 Bft) SO 135 0 min 0 W/m 2,0 C -4,1 C 19,5 km/h (3 Bft)
14.12.2008 09:50 3,9 C 87 % 1004,5 hPa 0,0 l/m 23,8 km/h (4 Bft) SO 135 0 min 0 W/m 1,9 C -6,0 C 23,8 km/h (4 Bft)
14.12.2008 09:54 3,8 C 88 % 1004,5 hPa 0,0 l/m 15,9 km/h (3 Bft) SO 140 0 min 0 W/m 2,0 C -2,8 C 15,9 km/h (3 Bft)
14.12.2008 09:59 3,8 C 89 % 1004,5 hPa 0,0 l/m 15,1 km/h (3 Bft) SO 140 0 min 0 W/m 2,2 C -2,4 C 15,1 km/h (3 Bft)
14.12.2008 10:04 3,8 C 90 % 1004,5 hPa 0,0 l/m 13,1 km/h (3 Bft) SO 125 0 min 0 W/m 2,3 C -1,3 C 13,1 km/h (3 Bft)
14.12.2008 10:10 3,8 C 90 % 1004,5 hPa 0,0 l/m 26,8 km/h (4 Bft) S-SO 150 0 min 0 W/m 2,3 C -7,1 C 26,8 km/h (4 Bft)
14.12.2008 10:14 3,6 C 90 % 1004,5 hPa 0,0 l/m 17,0 km/h (3 Bft) SO 145 0 min 0 W/m 2,1 C -3,6 C 17,0 km/h (3 Bft)
14.12.2008 10:19 3,5 C 90 % 1005,5 hPa 0,0 l/m 15,3 km/h (3 Bft) S-SO 155 0 min 0 W/m 2,0 C -2,9 C 15,3 km/h (3 Bft)
14.12.2008 10:24 3,5 C 90 % 1005,5 hPa 0,0 l/m 17,8 km/h (3 Bft) SO 140 0 min 0 W/m 2,0 C -4,1 C 17,8 km/h (3 Bft)
14.12.2008 10:29 3,5 C 91 % 1005,5 hPa 0,0 l/m 14,6 km/h (3 Bft) SO 145 0 min 0 W/m 2,2 C -2,5 C 14,6 km/h (3 Bft)
14.12.2008 10:35 3,5 C 91 % 1005,5 hPa 0,0 l/m 11,6 km/h (2 Bft) O 95 0 min 0 W/m 2,2 C -0,7 C 11,6 km/h (2 Bft)
14.12.2008 10:40 3,4 C 91 % 1005,5 hPa 0,0 l/m 12,7 km/h (3 Bft) S-SO 150 0 min 0 W/m 2,1 C -1,5 C 12,7 km/h (3 Bft)
14.12.2008 10:45 3,4 C 91 % 1005,5 hPa 0,0 l/m 15,1 km/h (3 Bft) SO 140 0 min 0 W/m 2,1 C -2,9 C 15,1 km/h (3 Bft)
14.12.2008 10:49 3,5 C 91 % 1005,5 hPa 0,0 l/m 10,7 km/h (2 Bft) S-SO 160 0 min 0 W/m 2,2 C -0,1 C 10,7 km/h (2 Bft)
14.12.2008 10:54 3,5 C 91 % 1005,5 hPa 0,0 l/m 17,2 km/h (3 Bft) O-SO 120 0 min 0 W/m 2,2 C -3,9 C 17,2 km/h (3 Bft)
14.12.2008 10:59 3,5 C 91 % 1005,5 hPa 0,0 l/m 14,5 km/h (3 Bft) SO 145 0 min 0 W/m 2,2 C -2,5 C 14,5 km/h (3 Bft)
14.12.2008 11:04 3,7 C 91 % 1005,5 hPa 0,0 l/m 14,0 km/h (3 Bft) SO 145 0 min 0 W/m 2,4 C -1,9 C 14,0 km/h (3 Bft)
14.12.2008 11:09 3,9 C 92 % 1005,5 hPa 0,0 l/m 16,1 km/h (3 Bft) SO 125 0 min 0 W/m 2,7 C -2,8 C 16,1 km/h (3 Bft)
14.12.2008 11:14 3,9 C 92 % 1005,5 hPa 0,0 l/m 14,6 km/h (3 Bft) SO 130 0 min 0 W/m 2,7 C -2,0 C 14,6 km/h (3 Bft)
14.12.2008 11:19 4,0 C 92 % 1005,5 hPa 0,0 l/m 13,1 km/h (3 Bft) SO 140 0 min 0 W/m 2,8 C -1,1 C 13,1 km/h (3 Bft)
14.12.2008 11:24 4,1 C 92 % 1005,5 hPa 0,0 l/m 12,6 km/h (3 Bft) O 95 0 min 0 W/m 2,9 C -0,7 C 12,6 km/h (3 Bft)
14.12.2008 11:30 4,2 C 92 % 1005,5 hPa 0,0 l/m 13,6 km/h (3 Bft) SO 135 0 min 0 W/m 3,0 C -1,1 C 13,6 km/h (3 Bft)
14.12.2008 11:35 4,3 C 92 % 1005,5 hPa 0,0 l/m 20,0 km/h (4 Bft) SO 125 0 min 0 W/m 3,1 C -4,1 C 20,0 km/h (4 Bft)
14.12.2008 11:40 4,4 C 92 % 1005,5 hPa 0,0 l/m 17,3 km/h (3 Bft) SO 125 0 min 0 W/m 3,2 C -2,8 C 17,3 km/h (3 Bft)
14.12.2008 11:44 4,5 C 91 % 1005,5 hPa 0,0 l/m 21,2 km/h (4 Bft) SO 130 0 min 0 W/m 3,2 C -4,3 C 21,2 km/h (4 Bft)
14.12.2008 11:49 4,6 C 91 % 1005,5 hPa 0,0 l/m 18,1 km/h (3 Bft) O-SO 115 0 min 0 W/m 3,3 C -2,9 C 18,1 km/h (3 Bft)
14.12.2008 11:54 4,9 C 91 % 1005,5 hPa 0,0 l/m 13,6 km/h (3 Bft) O-SO 120 0 min 0 W/m 3,6 C -0,3 C 13,6 km/h (3 Bft)
14.12.2008 11:59 5,2 C 91 % 1005,5 hPa 0,0 l/m 15,5 km/h (3 Bft) O-SO 105 0 min 0 W/m 3,9 C -0,9 C 15,5 km/h (3 Bft)
14.12.2008 12:04 5,3 C 91 % 1005,5 hPa 0,0 l/m 24,5 km/h (4 Bft) O-SO 115 0 min 0 W/m 4,0 C -4,4 C 24,5 km/h (4 Bft)
14.12.2008 12:09 5,3 C 90 % 1005,5 hPa 0,0 l/m 15,3 km/h (3 Bft) O-SO 120 0 min 0 W/m 3,8 C -0,7 C 15,3 km/h (3 Bft)
14.12.2008 12:14 5,3 C 89 % 1005,5 hPa 0,0 l/m 21,2 km/h (4 Bft) O-SO 110 0 min 0 W/m 3,6 C -3,2 C 21,2 km/h (4 Bft)
14.12.2008 12:19 5,2 C 89 % 1005,5 hPa 0,0 l/m 22,0 km/h (4 Bft) SO 125 0 min 0 W/m 3,5 C -3,7 C 22,0 km/h (4 Bft)
14.12.2008 12:24 5,2 C 89 % 1005,5 hPa 0,0 l/m 16,6 km/h (3 Bft) SO 130 0 min 0 W/m 3,5 C -1,5 C 16,6 km/h (3 Bft)
14.12.2008 12:30 4,9 C 89 % 1005,5 hPa 0,0 l/m 19,5 km/h (3 Bft) SO 130 0 min 0 W/m 3,2 C -3,1 C 19,5 km/h (3 Bft)
14.12.2008 12:35 5,1 C 89 % 1005,5 hPa 0,0 l/m 9,8 km/h (2 Bft) O-SO 110 0 min 0 W/m 3,4 C 2,3 C 9,8 km/h (2 Bft)
14.12.2008 12:40 5,1 C 89 % 1005,5 hPa 0,0 l/m 18,7 km/h (3 Bft) SO 135 0 min 0 W/m 3,4 C -2,5 C 18,7 km/h (3 Bft)
14.12.2008 12:44 5,1 C 89 % 1005,5 hPa 0,0 l/m 25,1 km/h (4 Bft) SO 135 0 min 0 W/m 3,4 C -4,8 C 25,1 km/h (4 Bft)
14.12.2008 12:49 5,1 C 89 % 1005,5 hPa 0,0 l/m 14,8 km/h (3 Bft) SO 125 0 min 0 W/m 3,4 C -0,7 C 14,8 km/h (3 Bft)
14.12.2008 12:54 5,1 C 89 % 1005,5 hPa 0,0 l/m 15,8 km/h (3 Bft) SO 135 0 min 0 W/m 3,4 C -1,2 C 15,8 km/h (3 Bft)
14.12.2008 12:59 5,1 C 89 % 1005,5 hPa 0,0 l/m 14,9 km/h (3 Bft) SO 140 0 min 0 W/m 3,4 C -0,8 C 14,9 km/h (3 Bft)
14.12.2008 13:05 4,9 C 89 % 1005,5 hPa 0,0 l/m 19,2 km/h (3 Bft) S-SO 150 0 min 0 W/m 3,2 C -3,0 C 19,2 km/h (3 Bft)
14.12.2008 13:09 4,9 C 89 % 1005,5 hPa 0,0 l/m 12,5 km/h (2 Bft) SO 145 0 min 0 W/m 3,2 C 0,3 C 12,5 km/h (2 Bft)
14.12.2008 13:14 5,1 C 89 % 1005,5 hPa 0,0 l/m 16,5 km/h (3 Bft) SO 140 0 min 0 W/m 3,4 C -1,5 C 16,5 km/h (3 Bft)
14.12.2008 13:19 4,9 C 89 % 1005,5 hPa 0,0 l/m 16,0 km/h (3 Bft) S-SO 150 0 min 0 W/m 3,2 C -1,5 C 16,0 km/h (3 Bft)
14.12.2008 13:25 4,9 C 89 % 1005,5 hPa 0,0 l/m 13,6 km/h (3 Bft) SO 140 0 min 0 W/m 3,2 C -0,3 C 13,6 km/h (3 Bft)
14.12.2008 13:30 4,9 C 89 % 1005,5 hPa 0,0 l/m 11,4 km/h (2 Bft) O-SO 120 0 min 0 W/m 3,2 C 1,0 C 11,4 km/h (2 Bft)
14.12.2008 13:35 5,1 C 89 % 1005,5 hPa 0,0 l/m 13,4 km/h (3 Bft) SO 135 0 min 0 W/m 3,4 C 0,1 C 13,4 km/h (3 Bft)
14.12.2008 13:39 5,1 C 89 % 1005,5 hPa 0,0 l/m 18,0 km/h (3 Bft) SO 125 0 min 0 W/m 3,4 C -2,2 C 18,0 km/h (3 Bft)
14.12.2008 13:44 5,1 C 89 % 1006,5 hPa 0,0 l/m 17,1 km/h (3 Bft) SO 130 0 min 0 W/m 3,4 C -1,8 C 17,1 km/h (3 Bft)
14.12.2008 13:49 5,2 C 89 % 1006,5 hPa 0,0 l/m 15,0 km/h (3 Bft) S 170 0 min 0 W/m 3,5 C -0,7 C 15,0 km/h (3 Bft)
14.12.2008 13:54 5,2 C 89 % 1006,5 hPa 0,0 l/m 16,5 km/h (3 Bft) SO 135 0 min 0 W/m 3,5 C -1,4 C 16,5 km/h (3 Bft)
14.12.2008 14:00 5,2 C 89 % 1006,5 hPa 0,0 l/m 16,3 km/h (3 Bft) SO 125 0 min 0 W/m 3,5 C -1,3 C 16,3 km/h (3 Bft)
14.12.2008 14:05 5,2 C 89 % 1006,5 hPa 0,0 l/m 15,1 km/h (3 Bft) O 100 0 min 0 W/m 3,5 C -0,7 C 15,1 km/h (3 Bft)
14.12.2008 14:09 5,2 C 89 % 1006,5 hPa 0,0 l/m 13,8 km/h (3 Bft) SO 130 0 min 0 W/m 3,5 C -0,0 C 13,8 km/h (3 Bft)
14.12.2008 14:14 5,2 C 89 % 1006,5 hPa 0,0 l/m 16,0 km/h (3 Bft) O-SO 110 0 min 0 W/m 3,5 C -1,2 C 16,0 km/h (3 Bft)
14.12.2008 14:20 5,2 C 89 % 1006,5 hPa 0,0 l/m 11,5 km/h (2 Bft) SO 130 0 min 0 W/m 3,5 C 1,3 C 11,5 km/h (2 Bft)
14.12.2008 14:25 5,2 C 89 % 1006,5 hPa 0,0 l/m 17,1 km/h (3 Bft) O-SO 115 0 min 0 W/m 3,5 C -1,7 C 17,1 km/h (3 Bft)
14.12.2008 14:30 5,2 C 89 % 1006,5 hPa 0,0 l/m 12,9 km/h (3 Bft) O 95 0 min 0 W/m 3,5 C 0,5 C 12,9 km/h (3 Bft)
14.12.2008 14:34 5,2 C 89 % 1006,5 hPa 0,0 l/m 16,0 km/h (3 Bft) O 90 0 min 0 W/m 3,5 C -1,2 C 16,0 km/h (3 Bft)
14.12.2008 14:39 5,2 C 89 % 1006,5 hPa 0,0 l/m 21,2 km/h (4 Bft) SO 125 0 min 0 W/m 3,5 C -3,4 C 21,2 km/h (4 Bft)
14.12.2008 14:44 5,2 C 89 % 1006,5 hPa 0,0 l/m 16,5 km/h (3 Bft) SO 135 0 min 0 W/m 3,5 C -1,4 C 16,5 km/h (3 Bft)
14.12.2008 14:49 5,2 C 89 % 1006,5 hPa 0,0 l/m 7,9 km/h (2 Bft) SO 135 0 min 0 W/m 3,5 C 3,9 C 7,9 km/h (2 Bft)
14.12.2008 14:55 5,1 C 89 % 1006,5 hPa 0,0 l/m 8,9 km/h (2 Bft) SO 125 0 min 0 W/m 3,4 C 3,0 C 8,9 km/h (2 Bft)
14.12.2008 15:00 5,1 C 90 % 1006,5 hPa 0,0 l/m 20,6 km/h (4 Bft) O-SO 105 0 min 0 W/m 3,6 C -3,3 C 20,6 km/h (4 Bft)
14.12.2008 15:04 4,9 C 90 % 1006,5 hPa 0,0 l/m 15,9 km/h (3 Bft) O-SO 105 0 min 0 W/m 3,4 C -1,5 C 15,9 km/h (3 Bft)
14.12.2008 15:10 5,1 C 90 % 1006,5 hPa 0,0 l/m 12,2 km/h (2 Bft) O 80 0 min 0 W/m 3,6 C 0,8 C 12,2 km/h (2 Bft)
14.12.2008 15:15 4,9 C 90 % 1006,5 hPa 0,0 l/m 22,0 km/h (4 Bft) O-SO 115 0 min 0 W/m 3,4 C -4,1 C 22,0 km/h (4 Bft)
14.12.2008 15:20 4,9 C 90 % 1007,5 hPa 0,0 l/m 19,9 km/h (4 Bft) O-SO 115 0 min 0 W/m 3,4 C -3,3 C 19,9 km/h (4 Bft)
14.12.2008 15:24 4,9 C 90 % 1007,5 hPa 0,0 l/m 20,0 km/h (4 Bft) O-SO 110 0 min 0 W/m 3,4 C -3,3 C 20,0 km/h (4 Bft)
14.12.2008 15:29 4,8 C 90 % 1007,5 hPa 0,0 l/m 15,4 km/h (3 Bft) O-SO 105 0 min 0 W/m 3,3 C -1,4 C 15,4 km/h (3 Bft)
14.12.2008 15:34 4,7 C 90 % 1007,5 hPa 0,0 l/m 20,2 km/h (4 Bft) O-SO 115 0 min 0 W/m 3,2 C -3,6 C 20,2 km/h (4 Bft)
14.12.2008 15:39 4,6 C 90 % 1007,5 hPa 0,0 l/m 14,1 km/h (3 Bft) O 95 0 min 0 W/m 3,1 C -0,9 C 14,1 km/h (3 Bft)
14.12.2008 15:45 4,5 C 90 % 1007,5 hPa 0,0 l/m 15,6 km/h (3 Bft) O-SO 110 0 min 0 W/m 3,0 C -1,8 C 15,6 km/h (3 Bft)
14.12.2008 15:50 4,3 C 91 % 1007,5 hPa 0,0 l/m 14,8 km/h (3 Bft) O 90 0 min 0 W/m 3,0 C -1,7 C 14,8 km/h (3 Bft)
14.12.2008 15:54 4,3 C 91 % 1007,5 hPa 0,0 l/m 16,8 km/h (3 Bft) O 90 0 min 0 W/m 3,0 C -2,7 C 16,8 km/h (3 Bft)
14.12.2008 15:59 4,2 C 91 % 1007,5 hPa 0,0 l/m 10,6 km/h (2 Bft) O-SO 105 0 min 0 W/m 2,9 C 0,8 C 10,6 km/h (2 Bft)
14.12.2008 16:04 4,2 C 91 % 1007,5 hPa 0,0 l/m 16,5 km/h (3 Bft) O-NO 70 0 min 0 W/m 2,9 C -2,7 C 16,5 km/h (3 Bft)
14.12.2008 16:10 4,1 C 92 % 1007,5 hPa 0,0 l/m 10,4 km/h (2 Bft) O-NO 75 0 min 0 W/m 2,9 C 0,8 C 10,4 km/h (2 Bft)
14.12.2008 16:14 4,2 C 92 % 1007,5 hPa 0,0 l/m 15,1 km/h (3 Bft) O-SO 115 0 min 0 W/m 3,0 C -1,9 C 15,1 km/h (3 Bft)
14.12.2008 16:19 4,2 C 92 % 1007,5 hPa 0,0 l/m 14,8 km/h (3 Bft) O-SO 105 0 min 0 W/m 3,0 C -1,8 C 14,8 km/h (3 Bft)
14.12.2008 16:24 4,2 C 92 % 1007,5 hPa 0,0 l/m 18,2 km/h (3 Bft) O 100 0 min 0 W/m 3,0 C -3,4 C 18,2 km/h (3 Bft)
14.12.2008 16:29 4,2 C 92 % 1007,5 hPa 0,0 l/m 15,2 km/h (3 Bft) O 85 0 min 0 W/m 3,0 C -2,0 C 15,2 km/h (3 Bft)
14.12.2008 16:35 4,2 C 92 % 1007,5 hPa 0,0 l/m 15,8 km/h (3 Bft) O-SO 115 0 min 0 W/m 3,0 C -2,3 C 15,8 km/h (3 Bft)
14.12.2008 16:40 4,1 C 92 % 1007,5 hPa 0,0 l/m 12,9 km/h (3 Bft) SO 125 0 min 0 W/m 2,9 C -0,8 C 12,9 km/h (3 Bft)
14.12.2008 16:44 4,1 C 92 % 1007,5 hPa 0,0 l/m 18,1 km/h (3 Bft) O 100 0 min 0 W/m 2,9 C -3,5 C 18,1 km/h (3 Bft)
14.12.2008 16:49 4,1 C 92 % 1007,5 hPa 0,0 l/m 15,9 km/h (3 Bft) SO 135 0 min 0 W/m 2,9 C -2,5 C 15,9 km/h (3 Bft)
14.12.2008 16:54 4,1 C 92 % 1007,5 hPa 0,0 l/m 19,1 km/h (3 Bft) O-SO 105 0 min 0 W/m 2,9 C -4,0 C 19,1 km/h (3 Bft)
14.12.2008 16:59 4,0 C 92 % 1007,5 hPa 0,0 l/m 20,1 km/h (4 Bft) O-SO 105 0 min 0 W/m 2,8 C -4,5 C 20,1 km/h (4 Bft)
14.12.2008 17:05 4,0 C 93 % 1007,5 hPa 0,0 l/m 19,2 km/h (3 Bft) O 95 0 min 0 W/m 3,0 C -4,1 C 19,2 km/h (3 Bft)
14.12.2008 17:09 3,9 C 93 % 1007,5 hPa 0,0 l/m 16,6 km/h (3 Bft) SO 135 0 min 0 W/m 2,9 C -3,1 C 16,6 km/h (3 Bft)
14.12.2008 17:14 3,9 C 93 % 1008,5 hPa 0,0 l/m 22,7 km/h (4 Bft) O-SO 110 0 min 0 W/m 2,9 C -5,6 C 22,7 km/h (4 Bft)
14.12.2008 17:19 3,9 C 93 % 1008,5 hPa 0,0 l/m 23,3 km/h (4 Bft) O 100 0 min 0 W/m 2,9 C -5,9 C 23,3 km/h (4 Bft)
14.12.2008 17:25 3,9 C 93 % 1008,5 hPa 0,0 l/m 20,1 km/h (4 Bft) O-SO 110 0 min 0 W/m 2,9 C -4,6 C 20,1 km/h (4 Bft)
14.12.2008 17:30 3,8 C 93 % 1008,5 hPa 0,0 l/m 10,6 km/h (2 Bft) SO 125 0 min 0 W/m 2,8 C 0,3 C 10,6 km/h (2 Bft)
14.12.2008 17:35 3,8 C 93 % 1008,5 hPa 0,0 l/m 19,3 km/h (3 Bft) O-SO 105 0 min 0 W/m 2,8 C -4,4 C 19,3 km/h (3 Bft)
14.12.2008 17:39 3,7 C 93 % 1008,5 hPa 0,0 l/m 17,1 km/h (3 Bft) O-SO 115 0 min 0 W/m 2,7 C -3,6 C 17,1 km/h (3 Bft)
14.12.2008 17:44 3,7 C 93 % 1008,5 hPa 0,0 l/m 24,5 km/h (4 Bft) O-SO 120 0 min 0 W/m 2,7 C -6,5 C 24,5 km/h (4 Bft)
14.12.2008 17:49 3,6 C 93 % 1008,5 hPa 0,0 l/m 20,3 km/h (4 Bft) O-SO 110 0 min 0 W/m 2,6 C -5,1 C 20,3 km/h (4 Bft)
14.12.2008 17:54 3,5 C 93 % 1008,5 hPa 0,0 l/m 16,6 km/h (3 Bft) O-SO 115 0 min 0 W/m 2,5 C -3,6 C 16,6 km/h (3 Bft)
14.12.2008 18:00 3,4 C 93 % 1008,5 hPa 0,0 l/m 12,5 km/h (2 Bft) SO 125 0 min 0 W/m 2,4 C -1,4 C 12,5 km/h (2 Bft)
14.12.2008 18:04 3,3 C 93 % 1008,5 hPa 0,0 l/m 19,0 km/h (3 Bft) O-SO 115 0 min 0 W/m 2,3 C -4,9 C 19,0 km/h (3 Bft)
14.12.2008 18:09 3,3 C 93 % 1008,5 hPa 0,0 l/m 17,5 km/h (3 Bft) SO 130 0 min 0 W/m 2,3 C -4,3 C 17,5 km/h (3 Bft)
14.12.2008 18:15 3,2 C 93 % 1008,5 hPa 0,0 l/m 18,2 km/h (3 Bft) O 100 0 min 0 W/m 2,2 C -4,7 C 18,2 km/h (3 Bft)
14.12.2008 18:20 3,1 C 93 % 1008,5 hPa 0,0 l/m 11,4 km/h (2 Bft) O-SO 115 0 min 0 W/m 2,1 C -1,0 C 11,4 km/h (2 Bft)
14.12.2008 18:25 3,2 C 93 % 1008,5 hPa 0,0 l/m 24,2 km/h (4 Bft) O-SO 110 0 min 0 W/m 2,2 C -7,1 C 24,2 km/h (4 Bft)
14.12.2008 18:29 3,1 C 93 % 1008,5 hPa 0,0 l/m 22,5 km/h (4 Bft) O-SO 120 0 min 0 W/m 2,1 C -6,6 C 22,5 km/h (4 Bft)
14.12.2008 18:34 3,1 C 93 % 1008,5 hPa 0,0 l/m 19,5 km/h (3 Bft) SO 125 0 min 0 W/m 2,1 C -5,4 C 19,5 km/h (3 Bft)
14.12.2008 18:39 3,1 C 93 % 1008,5 hPa 0,0 l/m 18,1 km/h (3 Bft) O 100 0 min 0 W/m 2,1 C -4,8 C 18,1 km/h (3 Bft)
14.12.2008 18:44 3,0 C 93 % 1008,5 hPa 0,0 l/m 23,2 km/h (4 Bft) O 95 0 min 0 W/m 2,0 C -7,0 C 23,2 km/h (4 Bft)
14.12.2008 18:50 3,0 C 94 % 1008,5 hPa 0,0 l/m 16,2 km/h (3 Bft) O-SO 105 0 min 0 W/m 2,1 C -4,0 C 16,2 km/h (3 Bft)
14.12.2008 18:55 3,0 C 94 % 1008,5 hPa 0,0 l/m 20,3 km/h (4 Bft) O-SO 105 0 min 0 W/m 2,1 C -5,9 C 20,3 km/h (4 Bft)
14.12.2008 18:59 3,0 C 94 % 1008,5 hPa 0,0 l/m 25,5 km/h (4 Bft) O-SO 110 0 min 0 W/m 2,1 C -7,8 C 25,5 km/h (4 Bft)
14.12.2008 19:05 3,0 C 94 % 1008,5 hPa 0,0 l/m 18,8 km/h (3 Bft) O-SO 110 0 min 0 W/m 2,1 C -5,2 C 18,8 km/h (3 Bft)
14.12.2008 19:10 2,9 C 94 % 1008,5 hPa 0,0 l/m 23,1 km/h (4 Bft) O 95 0 min 0 W/m 2,0 C -7,1 C 23,1 km/h (4 Bft)
14.12.2008 19:15 2,9 C 94 % 1008,5 hPa 0,0 l/m 21,9 km/h (4 Bft) O-SO 105 0 min 0 W/m 2,0 C -6,7 C 21,9 km/h (4 Bft)
14.12.2008 19:20 2,8 C 94 % 1008,5 hPa 0,0 l/m 23,8 km/h (4 Bft) O-SO 115 0 min 0 W/m 1,9 C -7,5 C 23,8 km/h (4 Bft)
14.12.2008 19:25 2,8 C 94 % 1008,5 hPa 0,0 l/m 19,6 km/h (3 Bft) O 100 0 min 0 W/m 1,9 C -5,8 C 19,6 km/h (3 Bft)
14.12.2008 19:30 2,7 C 94 % 1008,5 hPa 0,0 l/m 22,8 km/h (4 Bft) O-SO 110 0 min 0 W/m 1,8 C -7,3 C 22,8 km/h (4 Bft)
14.12.2008 19:35 2,7 C 94 % 1008,5 hPa 0,0 l/m 18,8 km/h (3 Bft) O 100 0 min 0 W/m 1,8 C -5,6 C 18,8 km/h (3 Bft)
14.12.2008 19:40 2,7 C 94 % 1009,5 hPa 0,0 l/m 17,1 km/h (3 Bft) O-SO 105 0 min 0 W/m 1,8 C -4,8 C 17,1 km/h (3 Bft)
14.12.2008 19:45 2,7 C 94 % 1009,5 hPa 0,0 l/m 20,4 km/h (4 Bft) O 95 0 min 0 W/m 1,8 C -6,3 C 20,4 km/h (4 Bft)
14.12.2008 19:50 2,6 C 94 % 1009,5 hPa 0,0 l/m 21,3 km/h (4 Bft) O 100 0 min 0 W/m 1,7 C -6,8 C 21,3 km/h (4 Bft)
14.12.2008 19:55 2,5 C 94 % 1009,5 hPa 0,0 l/m 24,8 km/h (4 Bft) SO 125 0 min 0 W/m 1,6 C -8,3 C 24,8 km/h (4 Bft)
14.12.2008 20:00 2,5 C 94 % 1009,5 hPa 0,0 l/m 28,0 km/h (5 Bft) O-SO 120 0 min 0 W/m 1,6 C -9,3 C 28,0 km/h (5 Bft)
14.12.2008 20:05 2,4 C 94 % 1009,5 hPa 0,0 l/m 21,1 km/h (4 Bft) O-SO 105 0 min 0 W/m 1,5 C -7,0 C 21,1 km/h (4 Bft)
14.12.2008 20:10 2,4 C 94 % 1009,5 hPa 0,0 l/m 20,9 km/h (4 Bft) SO 140 0 min 0 W/m 1,5 C -6,9 C 20,9 km/h (4 Bft)
14.12.2008 20:15 2,4 C 94 % 1009,5 hPa 0,0 l/m 18,5 km/h (3 Bft) SO 125 0 min 0 W/m 1,5 C -5,9 C 18,5 km/h (3 Bft)
14.12.2008 20:20 2,3 C 94 % 1009,5 hPa 0,0 l/m 27,1 km/h (5 Bft) O 100 0 min 0 W/m 1,4 C -9,3 C 27,1 km/h (5 Bft)
14.12.2008 20:25 2,3 C 94 % 1009,5 hPa 0,0 l/m 21,5 km/h (4 Bft) SO 125 0 min 0 W/m 1,4 C -7,3 C 21,5 km/h (4 Bft)
14.12.2008 20:30 2,3 C 94 % 1009,5 hPa 0,0 l/m 21,9 km/h (4 Bft) O 85 0 min 0 W/m 1,4 C -7,4 C 21,9 km/h (4 Bft)
14.12.2008 20:34 2,3 C 94 % 1009,5 hPa 0,0 l/m 11,3 km/h (2 Bft) O 95 0 min 0 W/m 1,4 C -1,9 C 11,3 km/h (2 Bft)
14.12.2008 20:39 2,3 C 94 % 1009,5 hPa 0,0 l/m 19,6 km/h (3 Bft) O-SO 105 0 min 0 W/m 1,4 C -6,5 C 19,6 km/h (3 Bft)
14.12.2008 20:44 2,2 C 94 % 1009,5 hPa 0,0 l/m 20,9 km/h (4 Bft) O-SO 105 0 min 0 W/m 1,3 C -7,2 C 20,9 km/h (4 Bft)
14.12.2008 20:49 2,2 C 94 % 1010,5 hPa 0,0 l/m 20,6 km/h (4 Bft) O-SO 105 0 min 0 W/m 1,3 C -7,0 C 20,6 km/h (4 Bft)
14.12.2008 20:55 2,1 C 94 % 1010,5 hPa 0,0 l/m 17,3 km/h (3 Bft) O-SO 115 0 min 0 W/m 1,2 C -5,7 C 17,3 km/h (3 Bft)
14.12.2008 21:00 2,1 C 94 % 1010,5 hPa 0,0 l/m 17,4 km/h (3 Bft) O-SO 115 0 min 0 W/m 1,2 C -5,7 C 17,4 km/h (3 Bft)
14.12.2008 21:04 2,1 C 94 % 1010,5 hPa 0,0 l/m 18,7 km/h (3 Bft) O 95 0 min 0 W/m 1,2 C -6,3 C 18,7 km/h (3 Bft)
14.12.2008 21:10 2,1 C 94 % 1010,5 hPa 0,0 l/m 13,3 km/h (3 Bft) O 85 0 min 0 W/m 1,2 C -3,4 C 13,3 km/h (3 Bft)
14.12.2008 21:15 2,0 C 94 % 1010,5 hPa 0,0 l/m 13,5 km/h (3 Bft) O-SO 115 0 min 0 W/m 1,1 C -3,7 C 13,5 km/h (3 Bft)
14.12.2008 21:20 2,0 C 94 % 1010,5 hPa 0,0 l/m 13,0 km/h (3 Bft) O-SO 105 0 min 0 W/m 1,1 C -3,4 C 13,0 km/h (3 Bft)
14.12.2008 21:24 2,0 C 94 % 1010,5 hPa 0,0 l/m 14,3 km/h (3 Bft) O 95 0 min 0 W/m 1,1 C -4,2 C 14,3 km/h (3 Bft)
14.12.2008 21:29 1,9 C 94 % 1010,5 hPa 0,0 l/m 15,1 km/h (3 Bft) O 90 0 min 0 W/m 1,0 C -4,7 C 15,1 km/h (3 Bft)
14.12.2008 21:34 1,9 C 95 % 1010,5 hPa 0,0 l/m 15,8 km/h (3 Bft) O-SO 105 0 min 0 W/m 1,2 C -5,1 C 15,8 km/h (3 Bft)
14.12.2008 21:39 1,9 C 95 % 1010,5 hPa 0,0 l/m 16,3 km/h (3 Bft) O 95 0 min 0 W/m 1,2 C -5,4 C 16,3 km/h (3 Bft)
14.12.2008 21:45 1,9 C 95 % 1010,5 hPa 0,0 l/m 13,5 km/h (3 Bft) O 80 0 min 0 W/m 1,2 C -3,8 C 13,5 km/h (3 Bft)
14.12.2008 21:50 1,9 C 95 % 1010,5 hPa 0,0 l/m 13,3 km/h (3 Bft) O 90 0 min 0 W/m 1,2 C -3,7 C 13,3 km/h (3 Bft)
14.12.2008 21:54 1,9 C 95 % 1010,5 hPa 0,0 l/m 12,8 km/h (3 Bft) O 95 0 min 0 W/m 1,2 C -3,3 C 12,8 km/h (3 Bft)
14.12.2008 21:59 1,8 C 95 % 1010,5 hPa 0,0 l/m 10,3 km/h (2 Bft) O 85 0 min 0 W/m 1,1 C -1,7 C 10,3 km/h (2 Bft)
14.12.2008 22:04 1,7 C 95 % 1010,5 hPa 0,0 l/m 12,0 km/h (2 Bft) O 90 0 min 0 W/m 1,0 C -3,0 C 12,0 km/h (2 Bft)
14.12.2008 22:10 1,7 C 95 % 1010,5 hPa 0,0 l/m 6,7 km/h (2 Bft) O 85 0 min 0 W/m 1,0 C 1,4 C 6,7 km/h (2 Bft)
14.12.2008 22:14 1,6 C 95 % 1010,5 hPa 0,0 l/m 11,3 km/h (2 Bft) O 90 0 min 0 W/m 0,9 C -2,7 C 11,3 km/h (2 Bft)
14.12.2008 22:19 1,6 C 95 % 1010,5 hPa 0,0 l/m 9,4 km/h (2 Bft) O-SO 105 0 min 0 W/m 0,9 C -1,2 C 9,4 km/h (2 Bft)
14.12.2008 22:24 1,5 C 95 % 1010,5 hPa 0,0 l/m 10,1 km/h (2 Bft) O 90 0 min 0 W/m 0,8 C -1,9 C 10,1 km/h (2 Bft)
14.12.2008 22:30 1,5 C 95 % 1010,5 hPa 0,0 l/m 10,2 km/h (2 Bft) O 80 0 min 0 W/m 0,8 C -2,0 C 10,2 km/h (2 Bft)
14.12.2008 22:35 1,5 C 95 % 1010,5 hPa 0,0 l/m 11,6 km/h (2 Bft) O-SO 105 0 min 0 W/m 0,8 C -3,0 C 11,6 km/h (2 Bft)
14.12.2008 22:40 1,5 C 95 % 1010,5 hPa 0,0 l/m 11,8 km/h (2 Bft) O 85 0 min 0 W/m 0,8 C -3,1 C 11,8 km/h (2 Bft)
14.12.2008 22:44 1,5 C 95 % 1010,5 hPa 0,0 l/m 13,0 km/h (3 Bft) O 80 0 min 0 W/m 0,8 C -3,9 C 13,0 km/h (3 Bft)
14.12.2008 22:49 1,5 C 95 % 1010,5 hPa 0,0 l/m 10,3 km/h (2 Bft) NO 55 0 min 0 W/m 0,8 C -2,0 C 10,3 km/h (2 Bft)
14.12.2008 22:54 1,5 C 95 % 1010,5 hPa 0,0 l/m 9,0 km/h (2 Bft) O-NO 75 0 min 0 W/m 0,8 C -1,0 C 9,0 km/h (2 Bft)
14.12.2008 23:00 1,5 C 95 % 1010,5 hPa 0,0 l/m 15,1 km/h (3 Bft) O-NO 75 0 min 0 W/m 0,8 C -5,2 C 15,1 km/h (3 Bft)
14.12.2008 23:05 1,6 C 95 % 1011,5 hPa 0,0 l/m 13,5 km/h (3 Bft) O-NO 65 0 min 0 W/m 0,9 C -4,1 C 13,5 km/h (3 Bft)
14.12.2008 23:09 1,7 C 95 % 1011,5 hPa 0,0 l/m 11,9 km/h (2 Bft) O 80 0 min 0 W/m 1,0 C -3,0 C 11,9 km/h (2 Bft)
14.12.2008 23:15 1,8 C 95 % 1011,5 hPa 0,0 l/m 11,1 km/h (2 Bft) O 90 0 min 0 W/m 1,1 C -2,3 C 11,1 km/h (2 Bft)
14.12.2008 23:20 1,9 C 95 % 1011,5 hPa 0,0 l/m 8,7 km/h (2 Bft) O-NO 75 0 min 0 W/m 1,2 C -0,3 C 8,7 km/h (2 Bft)
14.12.2008 23:25 1,9 C 95 % 1011,5 hPa 0,0 l/m 12,5 km/h (2 Bft) O 80 0 min 0 W/m 1,2 C -3,1 C 12,5 km/h (2 Bft)
14.12.2008 23:29 2,0 C 95 % 1011,5 hPa 0,0 l/m 12,4 km/h (2 Bft) NO 50 0 min 0 W/m 1,3 C -3,0 C 12,4 km/h (2 Bft)
14.12.2008 23:34 2,1 C 95 % 1011,5 hPa 0,0 l/m 13,1 km/h (3 Bft) O-NO 65 0 min 0 W/m 1,4 C -3,3 C 13,1 km/h (3 Bft)
14.12.2008 23:39 2,1 C 95 % 1011,5 hPa 0,0 l/m 13,2 km/h (3 Bft) O-NO 65 0 min 0 W/m 1,4 C -3,4 C 13,2 km/h (3 Bft)
14.12.2008 23:44 2,2 C 95 % 1011,5 hPa 0,0 l/m 12,0 km/h (2 Bft) O-NO 75 0 min 0 W/m 1,5 C -2,5 C 12,0 km/h (2 Bft)
14.12.2008 23:50 2,3 C 95 % 1011,5 hPa 0,0 l/m 11,8 km/h (2 Bft) O 85 0 min 0 W/m 1,6 C -2,2 C 11,8 km/h (2 Bft)
14.12.2008 23:55 2,3 C 95 % 1011,5 hPa 0,0 l/m 13,2 km/h (3 Bft) O-NO 70 0 min 0 W/m 1,6 C -3,1 C 13,2 km/h (3 Bft)
14.12.2008 23:59 2,3 C 95 % 1011,5 hPa 0,0 l/m 11,7 km/h (2 Bft) O-NO 65 0 min 0 W/m 1,6 C -2,1 C 11,7 km/h (2 Bft)
_ Min-Zeit 22:24 09:34 00:29 - 22:10 - - - - 06:04 20:00 22:10
Minimum _ 1,5 C 84 % 1000,5 hPa - 6,7 km/h (2 Bft) - - - - 0,7 C -9,3 C 6,7 km/h (2 Bft)
_ Max-Zeit 09:10 08:24 23:05 09:04 20:00 - - 00:04 00:04 09:04 14:49 20:00
Maximum _ 6,0 C 95 % 1011,5 hPa 0,3 l/m 28,0 km/h
O-SO (5 Bft)
- - 0 min 0 W/m 4,3 C 3,9 C 28,0 km/h
O-SO (5 Bft)
Durchschnitt _ 3,3 C 92 % 1005,5 hPa #0,3 l/m 16,3 km/h (3 Bft) SO - #0 min. 0 W/m 2,2 C -3,4 C 16,3 km/h (3 Bft)
copyright by Holger Just